sensor_id;sensor_type;location;lat;lon;timestamp;temperature;humidity
53045;DHT22;38930;52.766;6.884;2024-02-21T00:02:11;9.00;99.90
53045;DHT22;38930;52.766;6.884;2024-02-21T00:04:36;9.40;99.90
53045;DHT22;38930;52.766;6.884;2024-02-21T00:07:04;9.70;99.90
53045;DHT22;38930;52.766;6.884;2024-02-21T00:09:29;8.90;99.90
53045;DHT22;38930;52.766;6.884;2024-02-21T00:11:55;8.90;99.90
53045;DHT22;38930;52.766;6.884;2024-02-21T00:14:21;8.90;99.90
53045;DHT22;38930;52.766;6.884;2024-02-21T00:16:47;8.90;99.90
53045;DHT22;38930;52.766;6.884;2024-02-21T00:19:12;9.60;99.90
53045;DHT22;38930;52.766;6.884;2024-02-21T00:21:39;8.90;99.90
53045;DHT22;38930;52.766;6.884;2024-02-21T00:24:05;8.90;99.90
53045;DHT22;38930;52.766;6.884;2024-02-21T00:26:31;8.90;99.90
53045;DHT22;38930;52.766;6.884;2024-02-21T00:28:57;9.20;99.90
53045;DHT22;38930;52.766;6.884;2024-02-21T00:31:22;8.90;99.90
53045;DHT22;38930;52.766;6.884;2024-02-21T00:33:48;8.90;99.90
53045;DHT22;38930;52.766;6.884;2024-02-21T00:36:13;8.90;99.90
53045;DHT22;38930;52.766;6.884;2024-02-21T00:38:40;9.00;99.90
53045;DHT22;38930;52.766;6.884;2024-02-21T00:41:06;8.90;99.90
53045;DHT22;38930;52.766;6.884;2024-02-21T00:43:32;8.40;99.90
53045;DHT22;38930;52.766;6.884;2024-02-21T00:45:57;9.20;99.90
53045;DHT22;38930;52.766;6.884;2024-02-21T00:48:23;9.00;99.90
53045;DHT22;38930;52.766;6.884;2024-02-21T00:50:48;9.00;99.90
53045;DHT22;38930;52.766;6.884;2024-02-21T00:53:14;9.00;99.90
53045;DHT22;38930;52.766;6.884;2024-02-21T00:55:39;9.00;99.90
53045;DHT22;38930;52.766;6.884;2024-02-21T00:58:05;9.00;99.90
53045;DHT22;38930;52.766;6.884;2024-02-21T01:00:31;9.60;99.90
53045;DHT22;38930;52.766;6.884;2024-02-21T01:02:57;9.00;99.90
53045;DHT22;38930;52.766;6.884;2024-02-21T01:05:22;8.90;99.90
53045;DHT22;38930;52.766;6.884;2024-02-21T01:07:48;9.00;99.90
53045;DHT22;38930;52.766;6.884;2024-02-21T01:10:14;9.00;99.90
53045;DHT22;38930;52.766;6.884;2024-02-21T01:12:39;9.00;99.90
53045;DHT22;38930;52.766;6.884;2024-02-21T01:15:05;9.00;99.90
53045;DHT22;38930;52.766;6.884;2024-02-21T01:17:31;9.00;99.90
53045;DHT22;38930;52.766;6.884;2024-02-21T01:19:56;9.70;99.90
53045;DHT22;38930;52.766;6.884;2024-02-21T01:22:22;9.00;99.90
53045;DHT22;38930;52.766;6.884;2024-02-21T01:24:47;9.00;99.90
53045;DHT22;38930;52.766;6.884;2024-02-21T01:27:13;8.90;99.90
53045;DHT22;38930;52.766;6.884;2024-02-21T01:29:38;9.00;99.90
53045;DHT22;38930;52.766;6.884;2024-02-21T01:32:04;9.00;99.90
53045;DHT22;38930;52.766;6.884;2024-02-21T01:34:30;9.00;99.90
53045;DHT22;38930;52.766;6.884;2024-02-21T01:36:56;9.20;99.90
53045;DHT22;38930;52.766;6.884;2024-02-21T01:39:21;9.80;99.90
53045;DHT22;38930;52.766;6.884;2024-02-21T01:41:47;8.70;99.90
53045;DHT22;38930;52.766;6.884;2024-02-21T01:44:13;9.00;99.90
53045;DHT22;38930;52.766;6.884;2024-02-21T01:46:39;9.00;99.90
53045;DHT22;38930;52.766;6.884;2024-02-21T01:49:05;9.00;99.90
53045;DHT22;38930;52.766;6.884;2024-02-21T01:51:31;9.00;99.90
53045;DHT22;38930;52.766;6.884;2024-02-21T01:53:57;9.00;99.90
53045;DHT22;38930;52.766;6.884;2024-02-21T01:56:24;9.00;99.90
53045;DHT22;38930;52.766;6.884;2024-02-21T01:58:51;9.00;99.90
53045;DHT22;38930;52.766;6.884;2024-02-21T02:01:16;9.00;99.90
53045;DHT22;38930;52.766;6.884;2024-02-21T02:03:45;9.00;99.90
53045;DHT22;38930;52.766;6.884;2024-02-21T02:06:10;9.00;99.90
53045;DHT22;38930;52.766;6.884;2024-02-21T02:08:36;9.60;99.90
53045;DHT22;38930;52.766;6.884;2024-02-21T02:11:02;9.70;99.90
53045;DHT22;38930;52.766;6.884;2024-02-21T02:13:27;9.00;99.90
53045;DHT22;38930;52.766;6.884;2024-02-21T02:15:54;9.10;99.90
53045;DHT22;38930;52.766;6.884;2024-02-21T02:18:20;9.00;99.90
53045;DHT22;38930;52.766;6.884;2024-02-21T02:20:46;9.00;99.90
53045;DHT22;38930;52.766;6.884;2024-02-21T02:23:31;9.00;99.90
53045;DHT22;38930;52.766;6.884;2024-02-21T02:25:57;8.90;99.90
53045;DHT22;38930;52.766;6.884;2024-02-21T02:28:23;9.00;99.90
53045;DHT22;38930;52.766;6.884;2024-02-21T02:30:49;9.10;99.90
53045;DHT22;38930;52.766;6.884;2024-02-21T02:33:15;9.00;99.90
53045;DHT22;38930;52.766;6.884;2024-02-21T02:35:43;8.70;99.90
53045;DHT22;38930;52.766;6.884;2024-02-21T02:38:09;9.00;99.90
53045;DHT22;38930;52.766;6.884;2024-02-21T02:40:35;8.90;99.90
53045;DHT22;38930;52.766;6.884;2024-02-21T02:43:01;8.90;99.90
53045;DHT22;38930;52.766;6.884;2024-02-21T02:45:27;8.90;99.90
53045;DHT22;38930;52.766;6.884;2024-02-21T02:47:53;8.90;99.90
53045;DHT22;38930;52.766;6.884;2024-02-21T02:50:26;8.90;99.90
53045;DHT22;38930;52.766;6.884;2024-02-21T02:52:52;8.90;99.90
53045;DHT22;38930;52.766;6.884;2024-02-21T02:55:18;8.80;99.90
53045;DHT22;38930;52.766;6.884;2024-02-21T02:57:45;8.90;99.90
53045;DHT22;38930;52.766;6.884;2024-02-21T03:00:11;9.30;99.90
53045;DHT22;38930;52.766;6.884;2024-02-21T03:02:38;8.80;99.90
53045;DHT22;38930;52.766;6.884;2024-02-21T03:05:11;8.90;99.90
53045;DHT22;38930;52.766;6.884;2024-02-21T03:07:37;8.80;99.90
53045;DHT22;38930;52.766;6.884;2024-02-21T03:10:03;8.80;99.90
53045;DHT22;38930;52.766;6.884;2024-02-21T03:12:29;8.80;99.90
53045;DHT22;38930;52.766;6.884;2024-02-21T03:14:54;8.80;99.90
53045;DHT22;38930;52.766;6.884;2024-02-21T03:17:21;8.80;99.90
53045;DHT22;38930;52.766;6.884;2024-02-21T03:19:46;9.00;99.90
53045;DHT22;38930;52.766;6.884;2024-02-21T03:22:14;9.60;99.90
53045;DHT22;38930;52.766;6.884;2024-02-21T03:24:39;8.70;99.90
53045;DHT22;38930;52.766;6.884;2024-02-21T03:27:05;8.90;99.90
53045;DHT22;38930;52.766;6.884;2024-02-21T03:29:30;8.70;99.90
53045;DHT22;38930;52.766;6.884;2024-02-21T03:31:56;9.70;99.90
53045;DHT22;38930;52.766;6.884;2024-02-21T03:34:21;8.70;99.90
53045;DHT22;38930;52.766;6.884;2024-02-21T03:36:47;8.70;99.90
53045;DHT22;38930;52.766;6.884;2024-02-21T03:39:12;8.70;99.90
53045;DHT22;38930;52.766;6.884;2024-02-21T03:41:38;9.20;99.90
53045;DHT22;38930;52.766;6.884;2024-02-21T03:44:04;8.70;99.90
53045;DHT22;38930;52.766;6.884;2024-02-21T03:46:30;9.10;99.90
53045;DHT22;38930;52.766;6.884;2024-02-21T03:48:57;8.70;99.90
53045;DHT22;38930;52.766;6.884;2024-02-21T03:51:22;9.40;99.90
53045;DHT22;38930;52.766;6.884;2024-02-21T03:53:48;8.70;99.90
53045;DHT22;38930;52.766;6.884;2024-02-21T03:56:13;9.00;99.90
53045;DHT22;38930;52.766;6.884;2024-02-21T03:58:39;8.70;99.90
53045;DHT22;38930;52.766;6.884;2024-02-21T04:01:05;9.30;99.90
53045;DHT22;38930;52.766;6.884;2024-02-21T04:03:30;8.60;99.90
53045;DHT22;38930;52.766;6.884;2024-02-21T04:05:56;8.60;99.90
53045;DHT22;38930;52.766;6.884;2024-02-21T04:08:22;8.90;99.90
53045;DHT22;38930;52.766;6.884;2024-02-21T04:10:48;8.70;99.90
53045;DHT22;38930;52.766;6.884;2024-02-21T04:13:14;8.70;99.90
53045;DHT22;38930;52.766;6.884;2024-02-21T04:15:40;8.60;99.90
53045;DHT22;38930;52.766;6.884;2024-02-21T04:18:06;8.70;99.90
53045;DHT22;38930;52.766;6.884;2024-02-21T04:20:31;8.60;99.90
53045;DHT22;38930;52.766;6.884;2024-02-21T04:22:57;8.70;99.90
53045;DHT22;38930;52.766;6.884;2024-02-21T04:25:23;8.70;99.90
53045;DHT22;38930;52.766;6.884;2024-02-21T04:27:49;9.40;99.90
53045;DHT22;38930;52.766;6.884;2024-02-21T04:30:15;8.70;99.90
53045;DHT22;38930;52.766;6.884;2024-02-21T04:32:41;8.70;99.90
53045;DHT22;38930;52.766;6.884;2024-02-21T04:35:07;9.10;99.90
53045;DHT22;38930;52.766;6.884;2024-02-21T04:37:33;8.70;99.90
53045;DHT22;38930;52.766;6.884;2024-02-21T04:39:59;8.70;99.90
53045;DHT22;38930;52.766;6.884;2024-02-21T04:42:25;9.30;99.90
53045;DHT22;38930;52.766;6.884;2024-02-21T04:44:51;8.70;99.90
53045;DHT22;38930;52.766;6.884;2024-02-21T04:47:16;8.70;99.90
53045;DHT22;38930;52.766;6.884;2024-02-21T04:49:42;9.00;99.90
53045;DHT22;38930;52.766;6.884;2024-02-21T04:52:08;8.70;99.90
53045;DHT22;38930;52.766;6.884;2024-02-21T04:54:34;8.90;99.90
53045;DHT22;38930;52.766;6.884;2024-02-21T04:57:00;8.70;99.90
53045;DHT22;38930;52.766;6.884;2024-02-21T04:59:26;8.70;99.90
53045;DHT22;38930;52.766;6.884;2024-02-21T05:01:52;8.70;99.90
53045;DHT22;38930;52.766;6.884;2024-02-21T05:04:18;8.70;99.90
53045;DHT22;38930;52.766;6.884;2024-02-21T05:06:43;8.70;99.90
53045;DHT22;38930;52.766;6.884;2024-02-21T05:09:09;8.70;99.90
53045;DHT22;38930;52.766;6.884;2024-02-21T05:11:38;8.70;99.90
53045;DHT22;38930;52.766;6.884;2024-02-21T05:14:04;8.70;99.90
53045;DHT22;38930;52.766;6.884;2024-02-21T05:16:30;9.30;99.90
53045;DHT22;38930;52.766;6.884;2024-02-21T05:18:56;8.70;99.90
53045;DHT22;38930;52.766;6.884;2024-02-21T05:21:25;8.70;99.90
53045;DHT22;38930;52.766;6.884;2024-02-21T05:23:52;8.70;99.90
53045;DHT22;38930;52.766;6.884;2024-02-21T05:26:21;9.20;99.90
53045;DHT22;38930;52.766;6.884;2024-02-21T05:28:48;8.70;99.90
53045;DHT22;38930;52.766;6.884;2024-02-21T05:31:15;8.70;99.90
53045;DHT22;38930;52.766;6.884;2024-02-21T05:33:41;8.60;99.90
53045;DHT22;38930;52.766;6.884;2024-02-21T05:36:06;8.70;99.90
53045;DHT22;38930;52.766;6.884;2024-02-21T05:38:32;8.70;99.90
53045;DHT22;38930;52.766;6.884;2024-02-21T05:40:57;8.70;99.90
53045;DHT22;38930;52.766;6.884;2024-02-21T05:43:23;8.70;99.90
53045;DHT22;38930;52.766;6.884;2024-02-21T05:45:49;9.10;99.90
53045;DHT22;38930;52.766;6.884;2024-02-21T05:48:14;8.70;99.90
53045;DHT22;38930;52.766;6.884;2024-02-21T05:50:40;8.70;99.90
53045;DHT22;38930;52.766;6.884;2024-02-21T05:53:05;8.70;99.90
53045;DHT22;38930;52.766;6.884;2024-02-21T05:55:31;8.70;99.90
53045;DHT22;38930;52.766;6.884;2024-02-21T05:57:57;8.70;99.90
53045;DHT22;38930;52.766;6.884;2024-02-21T06:00:22;9.50;99.90
53045;DHT22;38930;52.766;6.884;2024-02-21T06:02:48;8.70;99.90
53045;DHT22;38930;52.766;6.884;2024-02-21T06:05:13;9.60;99.90
53045;DHT22;38930;52.766;6.884;2024-02-21T06:07:39;9.20;99.90
53045;DHT22;38930;52.766;6.884;2024-02-21T06:10:06;8.70;99.90
53045;DHT22;38930;52.766;6.884;2024-02-21T06:12:32;8.70;99.90
53045;DHT22;38930;52.766;6.884;2024-02-21T06:14:57;8.70;99.90
53045;DHT22;38930;52.766;6.884;2024-02-21T06:17:23;9.10;99.90
53045;DHT22;38930;52.766;6.884;2024-02-21T06:19:48;8.70;99.90
53045;DHT22;38930;52.766;6.884;2024-02-21T06:22:14;8.80;99.90
53045;DHT22;38930;52.766;6.884;2024-02-21T06:24:39;8.60;99.90
53045;DHT22;38930;52.766;6.884;2024-02-21T06:27:05;8.50;99.90
53045;DHT22;38930;52.766;6.884;2024-02-21T06:29:34;8.70;99.90
53045;DHT22;38930;52.766;6.884;2024-02-21T06:32:01;8.70;99.90
53045;DHT22;38930;52.766;6.884;2024-02-21T06:34:27;9.00;99.90
53045;DHT22;38930;52.766;6.884;2024-02-21T06:36:52;8.70;99.90
53045;DHT22;38930;52.766;6.884;2024-02-21T06:39:18;8.60;99.90
53045;DHT22;38930;52.766;6.884;2024-02-21T06:41:44;8.70;99.90
53045;DHT22;38930;52.766;6.884;2024-02-21T06:44:09;8.70;99.90
53045;DHT22;38930;52.766;6.884;2024-02-21T06:46:35;8.70;99.90
53045;DHT22;38930;52.766;6.884;2024-02-21T06:49:02;8.70;99.90
53045;DHT22;38930;52.766;6.884;2024-02-21T06:51:28;8.70;99.90
53045;DHT22;38930;52.766;6.884;2024-02-21T06:53:55;8.70;99.90
53045;DHT22;38930;52.766;6.884;2024-02-21T06:56:22;8.70;99.90
53045;DHT22;38930;52.766;6.884;2024-02-21T06:58:52;8.70;99.90
53045;DHT22;38930;52.766;6.884;2024-02-21T07:01:18;9.20;99.90
53045;DHT22;38930;52.766;6.884;2024-02-21T07:03:43;8.70;99.90
53045;DHT22;38930;52.766;6.884;2024-02-21T07:06:09;7.50;99.90
53045;DHT22;38930;52.766;6.884;2024-02-21T07:08:34;8.70;99.90
53045;DHT22;38930;52.766;6.884;2024-02-21T07:11:00;8.70;99.90
53045;DHT22;38930;52.766;6.884;2024-02-21T07:13:25;8.70;99.90
53045;DHT22;38930;52.766;6.884;2024-02-21T07:15:51;9.30;99.90
53045;DHT22;38930;52.766;6.884;2024-02-21T07:18:17;8.70;99.90
53045;DHT22;38930;52.766;6.884;2024-02-21T07:20:42;9.10;99.90
53045;DHT22;38930;52.766;6.884;2024-02-21T07:23:08;8.70;99.90
53045;DHT22;38930;52.766;6.884;2024-02-21T07:25:34;8.60;99.90
53045;DHT22;38930;52.766;6.884;2024-02-21T07:27:59;8.70;99.90
53045;DHT22;38930;52.766;6.884;2024-02-21T07:30:25;8.70;99.90
53045;DHT22;38930;52.766;6.884;2024-02-21T07:32:51;8.50;99.90
53045;DHT22;38930;52.766;6.884;2024-02-21T07:35:20;8.70;99.90
53045;DHT22;38930;52.766;6.884;2024-02-21T07:37:45;8.60;99.90
53045;DHT22;38930;52.766;6.884;2024-02-21T07:40:15;9.00;99.90
53045;DHT22;38930;52.766;6.884;2024-02-21T07:42:41;8.60;99.90
53045;DHT22;38930;52.766;6.884;2024-02-21T07:45:10;8.60;99.90
53045;DHT22;38930;52.766;6.884;2024-02-21T07:47:36;8.60;99.90
53045;DHT22;38930;52.766;6.884;2024-02-21T07:50:11;9.00;99.90
53045;DHT22;38930;52.766;6.884;2024-02-21T07:52:37;8.60;99.90
53045;DHT22;38930;52.766;6.884;2024-02-21T07:55:03;8.60;99.90
53045;DHT22;38930;52.766;6.884;2024-02-21T07:57:29;8.60;99.90
53045;DHT22;38930;52.766;6.884;2024-02-21T07:59:54;8.60;99.90
53045;DHT22;38930;52.766;6.884;2024-02-21T08:02:20;9.40;99.90
53045;DHT22;38930;52.766;6.884;2024-02-21T08:04:45;8.60;99.90
53045;DHT22;38930;52.766;6.884;2024-02-21T08:07:11;8.60;99.90
53045;DHT22;38930;52.766;6.884;2024-02-21T08:09:39;8.60;99.90
53045;DHT22;38930;52.766;6.884;2024-02-21T08:12:05;8.60;99.90
53045;DHT22;38930;52.766;6.884;2024-02-21T08:14:31;8.60;99.90
53045;DHT22;38930;52.766;6.884;2024-02-21T08:16:57;8.50;99.90
53045;DHT22;38930;52.766;6.884;2024-02-21T08:19:22;8.60;99.90
53045;DHT22;38930;52.766;6.884;2024-02-21T08:21:48;8.60;99.90
53045;DHT22;38930;52.766;6.884;2024-02-21T08:24:14;8.80;99.90
53045;DHT22;38930;52.766;6.884;2024-02-21T08:26:43;8.60;99.90
53045;DHT22;38930;52.766;6.884;2024-02-21T08:29:12;9.40;99.90
53045;DHT22;38930;52.766;6.884;2024-02-21T08:31:38;8.50;99.90
53045;DHT22;38930;52.766;6.884;2024-02-21T08:34:03;8.50;99.90
53045;DHT22;38930;52.766;6.884;2024-02-21T08:36:36;9.40;99.90
53045;DHT22;38930;52.766;6.884;2024-02-21T08:39:02;8.50;99.90
53045;DHT22;38930;52.766;6.884;2024-02-21T08:41:30;8.60;99.90
53045;DHT22;38930;52.766;6.884;2024-02-21T08:43:55;8.60;99.90
53045;DHT22;38930;52.766;6.884;2024-02-21T08:46:21;8.60;99.90
53045;DHT22;38930;52.766;6.884;2024-02-21T08:48:47;8.60;99.90
53045;DHT22;38930;52.766;6.884;2024-02-21T08:51:14;8.60;99.90
53045;DHT22;38930;52.766;6.884;2024-02-21T08:53:39;8.60;99.90
53045;DHT22;38930;52.766;6.884;2024-02-21T08:56:06;8.60;99.90
53045;DHT22;38930;52.766;6.884;2024-02-21T08:58:33;8.60;99.90
53045;DHT22;38930;52.766;6.884;2024-02-21T09:00:58;8.70;99.90
53045;DHT22;38930;52.766;6.884;2024-02-21T09:03:24;8.80;99.90
53045;DHT22;38930;52.766;6.884;2024-02-21T09:05:50;8.70;99.90
53045;DHT22;38930;52.766;6.884;2024-02-21T09:08:16;9.20;99.90
53045;DHT22;38930;52.766;6.884;2024-02-21T09:10:41;9.30;99.90
53045;DHT22;38930;52.766;6.884;2024-02-21T09:13:07;8.70;99.90
53045;DHT22;38930;52.766;6.884;2024-02-21T09:15:35;9.00;99.90
53045;DHT22;38930;52.766;6.884;2024-02-21T09:18:01;8.80;99.90
53045;DHT22;38930;52.766;6.884;2024-02-21T09:20:26;8.80;99.90
53045;DHT22;38930;52.766;6.884;2024-02-21T09:22:52;8.80;99.90
53045;DHT22;38930;52.766;6.884;2024-02-21T09:25:18;8.80;99.90
53045;DHT22;38930;52.766;6.884;2024-02-21T09:27:44;8.90;99.90
53045;DHT22;38930;52.766;6.884;2024-02-21T09:30:10;8.90;99.90
53045;DHT22;38930;52.766;6.884;2024-02-21T09:32:37;8.90;99.90
53045;DHT22;38930;52.766;6.884;2024-02-21T09:35:03;8.90;99.90
53045;DHT22;38930;52.766;6.884;2024-02-21T09:37:31;8.90;99.90
53045;DHT22;38930;52.766;6.884;2024-02-21T09:39:56;8.90;99.90
53045;DHT22;38930;52.766;6.884;2024-02-21T09:42:30;9.00;99.90
53045;DHT22;38930;52.766;6.884;2024-02-21T09:45:00;9.00;99.90
53045;DHT22;38930;52.766;6.884;2024-02-21T09:47:38;9.00;99.90
53045;DHT22;38930;52.766;6.884;2024-02-21T09:50:06;9.00;99.90
53045;DHT22;38930;52.766;6.884;2024-02-21T09:52:32;9.00;99.90
53045;DHT22;38930;52.766;6.884;2024-02-21T09:55:01;9.00;99.90
53045;DHT22;38930;52.766;6.884;2024-02-21T09:57:27;8.90;99.90
53045;DHT22;38930;52.766;6.884;2024-02-21T09:59:55;9.10;99.90
53045;DHT22;38930;52.766;6.884;2024-02-21T10:02:22;9.10;99.90
53045;DHT22;38930;52.766;6.884;2024-02-21T10:04:47;9.10;99.90
53045;DHT22;38930;52.766;6.884;2024-02-21T10:07:13;9.10;99.90
53045;DHT22;38930;52.766;6.884;2024-02-21T10:09:38;9.90;99.90
53045;DHT22;38930;52.766;6.884;2024-02-21T10:12:09;9.10;99.90
53045;DHT22;38930;52.766;6.884;2024-02-21T10:14:36;9.10;99.90
53045;DHT22;38930;52.766;6.884;2024-02-21T10:17:01;9.20;99.90
53045;DHT22;38930;52.766;6.884;2024-02-21T10:19:28;9.10;99.90
53045;DHT22;38930;52.766;6.884;2024-02-21T10:22:09;9.10;99.90
53045;DHT22;38930;52.766;6.884;2024-02-21T10:24:35;9.10;99.90
53045;DHT22;38930;52.766;6.884;2024-02-21T10:27:04;9.10;99.90
53045;DHT22;38930;52.766;6.884;2024-02-21T10:29:31;9.20;99.90
53045;DHT22;38930;52.766;6.884;2024-02-21T10:32:13;9.10;99.90
53045;DHT22;38930;52.766;6.884;2024-02-21T10:34:40;9.20;99.90
53045;DHT22;38930;52.766;6.884;2024-02-21T10:37:07;9.20;99.90
53045;DHT22;38930;52.766;6.884;2024-02-21T10:39:38;10.10;99.90
53045;DHT22;38930;52.766;6.884;2024-02-21T10:42:04;9.20;99.90
53045;DHT22;38930;52.766;6.884;2024-02-21T10:44:31;9.20;99.90
53045;DHT22;38930;52.766;6.884;2024-02-21T10:46:58;9.20;99.90
53045;DHT22;38930;52.766;6.884;2024-02-21T10:49:25;9.20;99.90
53045;DHT22;38930;52.766;6.884;2024-02-21T10:51:55;9.30;99.90
53045;DHT22;38930;52.766;6.884;2024-02-21T10:54:39;10.30;99.90
53045;DHT22;38930;52.766;6.884;2024-02-21T10:57:10;9.40;99.90
53045;DHT22;38930;52.766;6.884;2024-02-21T10:59:39;9.20;99.90
53045;DHT22;38930;52.766;6.884;2024-02-21T11:02:05;9.50;99.90
53045;DHT22;38930;52.766;6.884;2024-02-21T11:04:32;9.50;99.90
53045;DHT22;38930;52.766;6.884;2024-02-21T11:07:02;9.60;99.90
53045;DHT22;38930;52.766;6.884;2024-02-21T11:09:30;9.60;99.90
53045;DHT22;38930;52.766;6.884;2024-02-21T11:12:04;9.70;99.90
53045;DHT22;38930;52.766;6.884;2024-02-21T11:14:30;9.70;99.90
53045;DHT22;38930;52.766;6.884;2024-02-21T11:17:01;9.70;99.90
53045;DHT22;38930;52.766;6.884;2024-02-21T11:19:28;9.70;99.90
53045;DHT22;38930;52.766;6.884;2024-02-21T11:21:55;10.40;99.90
53045;DHT22;38930;52.766;6.884;2024-02-21T11:24:29;9.70;99.90
53045;DHT22;38930;52.766;6.884;2024-02-21T11:26:55;9.70;99.90
53045;DHT22;38930;52.766;6.884;2024-02-21T11:29:24;9.70;99.90
53045;DHT22;38930;52.766;6.884;2024-02-21T11:31:51;9.70;99.90
53045;DHT22;38930;52.766;6.884;2024-02-21T11:34:18;10.20;99.90
53045;DHT22;38930;52.766;6.884;2024-02-21T11:36:52;9.80;99.90
53045;DHT22;38930;52.766;6.884;2024-02-21T11:39:19;9.80;99.90
53045;DHT22;38930;52.766;6.884;2024-02-21T11:41:47;9.90;99.90
53045;DHT22;38930;52.766;6.884;2024-02-21T11:44:12;9.90;99.90
53045;DHT22;38930;52.766;6.884;2024-02-21T11:46:38;9.90;99.90
53045;DHT22;38930;52.766;6.884;2024-02-21T11:49:04;10.00;99.90
53045;DHT22;38930;52.766;6.884;2024-02-21T11:51:29;10.00;99.90
53045;DHT22;38930;52.766;6.884;2024-02-21T11:53:55;10.00;99.90
53045;DHT22;38930;52.766;6.884;2024-02-21T11:56:21;9.90;99.90
53045;DHT22;38930;52.766;6.884;2024-02-21T11:58:49;9.90;99.90
53045;DHT22;38930;52.766;6.884;2024-02-21T12:01:15;9.90;99.90
53045;DHT22;38930;52.766;6.884;2024-02-21T12:03:42;10.80;99.90
53045;DHT22;38930;52.766;6.884;2024-02-21T12:06:07;9.80;99.90
53045;DHT22;38930;52.766;6.884;2024-02-21T12:08:43;10.80;99.90
53045;DHT22;38930;52.766;6.884;2024-02-21T12:11:22;9.90;99.90
53045;DHT22;38930;52.766;6.884;2024-02-21T12:14:01;10.00;99.90
53045;DHT22;38930;52.766;6.884;2024-02-21T12:16:29;9.90;99.90
53045;DHT22;38930;52.766;6.884;2024-02-21T12:18:55;9.80;99.90
53045;DHT22;38930;52.766;6.884;2024-02-21T12:21:30;9.90;99.90
53045;DHT22;38930;52.766;6.884;2024-02-21T12:23:58;10.30;99.90
53045;DHT22;38930;52.766;6.884;2024-02-21T12:26:24;9.90;99.90
53045;DHT22;38930;52.766;6.884;2024-02-21T12:28:51;9.90;99.90
53045;DHT22;38930;52.766;6.884;2024-02-21T12:31:16;9.80;99.90
53045;DHT22;38930;52.766;6.884;2024-02-21T12:33:43;9.80;99.90
53045;DHT22;38930;52.766;6.884;2024-02-21T12:36:09;9.80;99.90
53045;DHT22;38930;52.766;6.884;2024-02-21T12:38:37;9.80;99.90
53045;DHT22;38930;52.766;6.884;2024-02-21T12:41:03;9.80;99.90
53045;DHT22;38930;52.766;6.884;2024-02-21T12:43:29;9.90;99.90
53045;DHT22;38930;52.766;6.884;2024-02-21T12:45:54;9.90;99.90
53045;DHT22;38930;52.766;6.884;2024-02-21T12:48:20;10.10;99.90
53045;DHT22;38930;52.766;6.884;2024-02-21T12:50:49;9.90;99.90
53045;DHT22;38930;52.766;6.884;2024-02-21T12:53:19;9.90;99.90
53045;DHT22;38930;52.766;6.884;2024-02-21T12:55:47;9.80;99.90
53045;DHT22;38930;52.766;6.884;2024-02-21T12:58:14;9.80;99.90
53045;DHT22;38930;52.766;6.884;2024-02-21T13:00:40;9.80;99.90
53045;DHT22;38930;52.766;6.884;2024-02-21T13:03:05;9.80;99.90
53045;DHT22;38930;52.766;6.884;2024-02-21T13:05:31;9.80;99.90
53045;DHT22;38930;52.766;6.884;2024-02-21T13:08:00;9.80;99.90
53045;DHT22;38930;52.766;6.884;2024-02-21T13:10:26;9.70;99.90
53045;DHT22;38930;52.766;6.884;2024-02-21T13:12:52;9.70;99.90
53045;DHT22;38930;52.766;6.884;2024-02-21T13:15:17;9.50;99.90
53045;DHT22;38930;52.766;6.884;2024-02-21T13:17:46;9.70;99.90
53045;DHT22;38930;52.766;6.884;2024-02-21T13:20:13;9.70;99.90
53045;DHT22;38930;52.766;6.884;2024-02-21T13:22:38;10.30;99.90
53045;DHT22;38930;52.766;6.884;2024-02-21T13:25:05;10.30;99.90
53045;DHT22;38930;52.766;6.884;2024-02-21T13:27:33;9.70;99.90
53045;DHT22;38930;52.766;6.884;2024-02-21T13:29:59;9.70;99.90
53045;DHT22;38930;52.766;6.884;2024-02-21T13:32:26;9.80;99.90
53045;DHT22;38930;52.766;6.884;2024-02-21T13:34:51;9.80;99.90
53045;DHT22;38930;52.766;6.884;2024-02-21T13:37:18;10.20;99.90
53045;DHT22;38930;52.766;6.884;2024-02-21T13:39:43;9.90;99.90
53045;DHT22;38930;52.766;6.884;2024-02-21T13:42:09;9.50;99.90
53045;DHT22;38930;52.766;6.884;2024-02-21T13:44:34;9.90;99.90
53045;DHT22;38930;52.766;6.884;2024-02-21T13:47:01;10.00;99.90
53045;DHT22;38930;52.766;6.884;2024-02-21T13:49:27;10.00;99.90
53045;DHT22;38930;52.766;6.884;2024-02-21T13:51:54;10.60;99.90
53045;DHT22;38930;52.766;6.884;2024-02-21T13:54:19;10.00;99.90
53045;DHT22;38930;52.766;6.884;2024-02-21T13:56:46;10.40;99.90
53045;DHT22;38930;52.766;6.884;2024-02-21T13:59:12;10.30;99.90
53045;DHT22;38930;52.766;6.884;2024-02-21T14:01:41;9.90;99.90
53045;DHT22;38930;52.766;6.884;2024-02-21T14:04:06;9.80;99.90
53045;DHT22;38930;52.766;6.884;2024-02-21T14:06:32;9.90;99.90
53045;DHT22;38930;52.766;6.884;2024-02-21T14:08:58;9.90;99.90
53045;DHT22;38930;52.766;6.884;2024-02-21T14:11:23;10.30;99.90
53045;DHT22;38930;52.766;6.884;2024-02-21T14:13:49;9.80;99.90
53045;DHT22;38930;52.766;6.884;2024-02-21T14:16:15;9.80;99.90
53045;DHT22;38930;52.766;6.884;2024-02-21T14:18:41;9.80;99.90
53045;DHT22;38930;52.766;6.884;2024-02-21T14:21:10;9.80;99.90
53045;DHT22;38930;52.766;6.884;2024-02-21T14:23:37;9.80;99.90
53045;DHT22;38930;52.766;6.884;2024-02-21T14:26:03;9.80;99.90
53045;DHT22;38930;52.766;6.884;2024-02-21T14:28:29;9.80;99.90
53045;DHT22;38930;52.766;6.884;2024-02-21T14:30:54;10.00;99.90
53045;DHT22;38930;52.766;6.884;2024-02-21T14:33:27;9.70;99.90
53045;DHT22;38930;52.766;6.884;2024-02-21T14:35:52;10.40;99.90
53045;DHT22;38930;52.766;6.884;2024-02-21T14:38:19;9.70;99.90
53045;DHT22;38930;52.766;6.884;2024-02-21T14:40:45;10.40;99.90
53045;DHT22;38930;52.766;6.884;2024-02-21T14:43:10;9.70;99.90
53045;DHT22;38930;52.766;6.884;2024-02-21T14:45:36;9.70;99.90
53045;DHT22;38930;52.766;6.884;2024-02-21T14:48:03;9.70;99.90
53045;DHT22;38930;52.766;6.884;2024-02-21T14:50:29;9.70;99.90
53045;DHT22;38930;52.766;6.884;2024-02-21T14:52:55;9.70;99.90
53045;DHT22;38930;52.766;6.884;2024-02-21T14:55:20;9.50;99.90
53045;DHT22;38930;52.766;6.884;2024-02-21T14:57:46;9.60;99.90
53045;DHT22;38930;52.766;6.884;2024-02-21T15:00:12;9.60;99.90
53045;DHT22;38930;52.766;6.884;2024-02-21T15:02:38;9.60;99.90
53045;DHT22;38930;52.766;6.884;2024-02-21T15:05:04;9.60;99.90
53045;DHT22;38930;52.766;6.884;2024-02-21T15:07:31;9.60;99.90
53045;DHT22;38930;52.766;6.884;2024-02-21T15:09:57;9.60;99.90
53045;DHT22;38930;52.766;6.884;2024-02-21T15:12:23;9.60;99.90
53045;DHT22;38930;52.766;6.884;2024-02-21T15:14:49;9.60;99.90
53045;DHT22;38930;52.766;6.884;2024-02-21T15:17:14;9.50;99.90
53045;DHT22;38930;52.766;6.884;2024-02-21T15:19:40;9.70;99.90
53045;DHT22;38930;52.766;6.884;2024-02-21T15:22:09;10.50;99.90
53045;DHT22;38930;52.766;6.884;2024-02-21T15:24:40;9.80;99.90
53045;DHT22;38930;52.766;6.884;2024-02-21T15:27:06;9.70;99.90
53045;DHT22;38930;52.766;6.884;2024-02-21T15:29:32;9.70;99.90
53045;DHT22;38930;52.766;6.884;2024-02-21T15:31:58;10.30;99.90
53045;DHT22;38930;52.766;6.884;2024-02-21T15:34:23;9.70;99.90
53045;DHT22;38930;52.766;6.884;2024-02-21T15:36:49;9.70;99.90
53045;DHT22;38930;52.766;6.884;2024-02-21T15:39:14;9.70;99.90
53045;DHT22;38930;52.766;6.884;2024-02-21T15:41:40;9.70;99.90